Time;durP1;ratioP1;P1;durP2;ratioP2;P2;SDS_P1;SDS_P2;PMS_P1;PMS_P2;Temp;Humidity;BMP_temperature;BMP_pressure;BME280_temperature;BME280_humidity;BME280_pressure;Samples;Min_cycle;Max_cycle;Signal;HPM_P1;HPM_P2
2023/10/27 00:01:34;;;;;;;13.77;6.82;;;;;;;17.27;69.49;98689.94;4994134;28;20036;-26
2023/10/27 00:04:00;;;;;;;13.23;7.00;;;;;;;17.23;69.51;98687.03;4993989;28;20050;-25
2023/10/27 00:06:27;;;;;;;15.80;6.85;;;;;;;17.37;69.54;98684.56;4994225;28;20042;-26
2023/10/27 00:08:53;;;;;;;16.00;6.90;;;;;;;17.10;70.40;98671.47;4994003;28;20379;-25
2023/10/27 00:11:18;;;;;;;14.48;6.90;;;;;;;17.12;70.70;98672.00;4993995;28;20033;-25
2023/10/27 00:13:43;;;;;;;11.70;5.78;;;;;;;17.23;70.58;98678.13;4993593;28;20383;-25
2023/10/27 00:16:10;;;;;;;11.65;6.30;;;;;;;17.23;70.42;98688.88;4993877;28;20085;-25
2023/10/27 00:18:36;;;;;;;11.02;5.75;;;;;;;17.20;70.47;98695.63;4993994;28;20390;-25
2023/10/27 00:21:03;;;;;;;13.57;6.13;;;;;;;17.14;70.64;98697.50;4993865;28;20093;-25
2023/10/27 00:23:28;;;;;;;16.40;7.07;;;;;;;17.11;70.21;98686.50;4993954;28;20573;-26
2023/10/27 00:25:53;;;;;;;11.13;6.72;;;;;;;17.09;70.13;98684.06;4993895;28;20105;-26
2023/10/27 00:28:19;;;;;;;12.07;6.95;;;;;;;17.03;70.23;98685.16;4993576;28;20031;-26
2023/10/27 00:30:44;;;;;;;14.68;6.95;;;;;;;16.97;70.12;98681.69;4993561;28;20060;-25
2023/10/27 00:33:09;;;;;;;14.68;7.57;;;;;;;17.01;70.58;98681.94;4993706;28;20496;-25
2023/10/27 00:35:35;;;;;;;15.27;7.60;;;;;;;17.08;69.71;98676.31;4993548;28;20101;-26
2023/10/27 00:38:00;;;;;;;14.82;7.53;;;;;;;17.11;69.87;98689.97;4993502;28;20015;-26
2023/10/27 00:40:26;;;;;;;12.85;7.15;;;;;;;17.14;70.21;98694.81;4993243;28;20026;-25
2023/10/27 00:42:51;;;;;;;15.13;7.50;;;;;;;17.10;70.67;98696.44;4993264;28;20053;-26
2023/10/27 00:45:17;;;;;;;18.38;7.30;;;;;;;17.13;70.32;98706.63;4993381;28;20111;-26
2023/10/27 00:47:42;;;;;;;16.60;7.45;;;;;;;17.10;70.15;98698.34;4993048;28;20026;-26
2023/10/27 00:50:09;;;;;;;11.52;6.80;;;;;;;17.09;70.78;98699.41;4993295;28;20113;-28
2023/10/27 00:52:35;;;;;;;18.08;7.60;;;;;;;17.09;70.70;98702.09;4993019;28;20050;-26
2023/10/27 00:55:01;;;;;;;15.93;7.13;;;;;;;17.22;70.65;98698.84;4993079;28;20034;-25
2023/10/27 00:57:28;;;;;;;17.10;7.72;;;;;;;17.17;70.69;98683.53;4992890;28;20026;-26
2023/10/27 00:59:53;;;;;;;18.33;8.55;;;;;;;17.29;70.01;98687.81;4993055;28;20102;-26
2023/10/27 01:02:21;;;;;;;21.00;8.30;;;;;;;17.22;70.31;98692.66;4992388;28;20105;-25
2023/10/27 01:04:47;;;;;;;14.70;7.88;;;;;;;17.05;70.46;98690.28;4992478;28;20145;-25
2023/10/27 01:07:13;;;;;;;22.05;8.07;;;;;;;16.84;71.53;98681.44;4992847;28;20040;-26
2023/10/27 01:09:38;;;;;;;17.50;7.88;;;;;;;16.90;71.21;98674.97;4992940;28;20022;-27
2023/10/27 01:12:04;;;;;;;17.23;8.25;;;;;;;17.05;71.02;98680.31;4992699;28;20026;-26
2023/10/27 01:14:30;;;;;;;16.60;7.65;;;;;;;17.18;70.82;98687.03;4992474;28;20064;-25
2023/10/27 01:16:56;;;;;;;17.50;7.32;;;;;;;17.10;70.92;98690.28;4992855;28;20518;-25
2023/10/27 01:19:22;;;;;;;12.75;7.18;;;;;;;17.07;71.03;98680.84;4992668;28;20088;-26
2023/10/27 01:21:47;;;;;;;16.05;7.55;;;;;;;17.09;70.99;98677.91;4991030;28;20046;-25
2023/10/27 01:24:13;;;;;;;17.00;6.80;;;;;;;17.03;71.15;98682.47;4973056;28;20069;-25
2023/10/27 01:26:38;;;;;;;12.10;6.80;;;;;;;17.06;71.31;98684.63;4972348;28;20416;-26
2023/10/27 01:29:03;;;;;;;14.93;7.13;;;;;;;17.04;70.94;98683.28;4972895;28;20023;-26
2023/10/27 01:31:30;;;;;;;16.17;6.75;;;;;;;17.00;71.41;98686.53;4972961;28;20504;-26
2023/10/27 01:33:55;;;;;;;17.55;7.10;;;;;;;16.88;71.86;98698.63;4972932;28;20395;-26
2023/10/27 01:36:21;;;;;;;18.10;6.78;;;;;;;16.90;72.23;98696.47;4990099;28;20030;-26
2023/10/27 01:38:46;;;;;;;15.75;6.60;;;;;;;17.04;71.55;98689.47;4992327;28;20032;-26
2023/10/27 01:41:11;;;;;;;15.10;6.63;;;;;;;17.00;71.75;98699.13;4992196;28;20026;-26
2023/10/27 01:43:37;;;;;;;13.57;6.82;;;;;;;17.08;71.81;98693.22;4992309;28;20026;-26
2023/10/27 01:46:02;;;;;;;13.75;6.93;;;;;;;16.94;71.70;98687.59;4992798;28;20338;-26
2023/10/27 01:48:28;;;;;;;12.90;5.72;;;;;;;16.58;73.45;98684.09;4992029;28;20482;-26
2023/10/27 01:50:55;;;;;;;16.50;5.50;;;;;;;16.68;73.45;98677.91;4992234;28;20026;-26
2023/10/27 01:53:20;;;;;;;12.73;5.25;;;;;;;16.78;72.54;98678.72;4993116;28;20164;-26
2023/10/27 01:55:46;;;;;;;15.90;6.05;;;;;;;16.85;72.71;98674.97;4987200;28;20476;-26
2023/10/27 01:58:11;;;;;;;14.38;5.65;;;;;;;16.91;72.35;98687.34;4972317;28;20065;-26
2023/10/27 02:00:36;;;;;;;12.38;6.05;;;;;;;16.88;71.84;98680.63;4972311;28;20030;-26
2023/10/27 02:03:02;;;;;;;14.82;5.65;;;;;;;16.85;72.02;98674.97;4972530;28;20546;-27
2023/10/27 02:05:27;;;;;;;11.57;5.55;;;;;;;16.93;71.37;98679.81;4972199;28;20066;-26
2023/10/27 02:07:53;;;;;;;14.10;4.88;;;;;;;17.06;71.13;98694.56;4972552;28;20027;-26
2023/10/27 02:10:18;;;;;;;12.93;5.65;;;;;;;16.90;71.65;98699.16;4971201;28;20402;-28
2023/10/27 02:12:45;;;;;;;13.52;5.30;;;;;;;17.06;70.86;98690.00;4972379;28;20031;-27
2023/10/27 02:15:11;;;;;;;13.95;6.43;;;;;;;16.99;71.01;98698.34;4972220;28;20023;-26
2023/10/27 02:17:39;;;;;;;14.82;6.60;;;;;;;16.89;71.39;98702.94;4972343;28;20029;-27
2023/10/27 02:20:06;;;;;;;16.13;7.72;;;;;;;16.84;71.65;98711.78;4972293;28;20482;-27
2023/10/27 02:22:31;;;;;;;12.05;6.30;;;;;;;16.88;71.51;98706.69;4972171;28;20031;-27
2023/10/27 02:24:57;;;;;;;15.18;6.57;;;;;;;16.90;71.68;98696.47;4972383;28;20027;-27
2023/10/27 02:27:22;;;;;;;15.60;6.43;;;;;;;16.97;71.17;98699.69;4971982;28;20062;-26
2023/10/27 02:29:48;;;;;;;14.40;6.20;;;;;;;16.94;70.74;98706.41;4987125;28;20130;-27
2023/10/27 02:32:13;;;;;;;12.07;6.47;;;;;;;16.95;70.43;98702.66;4972265;28;20027;-26
2023/10/27 02:34:38;;;;;;;16.00;6.55;;;;;;;16.99;70.60;98700.22;4971918;28;20458;-26
2023/10/27 02:37:04;;;;;;;14.73;6.28;;;;;;;17.09;70.77;98700.19;4971074;28;20023;-26
2023/10/27 02:39:30;;;;;;;16.73;6.38;;;;;;;16.93;70.71;98690.56;4971869;28;20019;-26
2023/10/27 02:41:55;;;;;;;12.48;5.60;;;;;;;16.93;70.80;98693.25;4972041;28;20402;-26
2023/10/27 02:44:20;;;;;;;11.25;5.72;;;;;;;16.91;70.88;98688.16;4971761;28;20059;-26
2023/10/27 02:46:46;;;;;;;15.13;5.70;;;;;;;16.94;70.63;98681.41;4972086;28;20023;-26
2023/10/27 02:49:12;;;;;;;13.63;5.75;;;;;;;16.99;70.80;98684.09;4971734;28;20498;-26
2023/10/27 02:51:37;;;;;;;13.40;6.05;;;;;;;16.97;70.67;98676.31;4971917;28;20054;-26
2023/10/27 02:54:03;;;;;;;18.27;8.80;;;;;;;16.95;71.24;98670.41;4971813;28;20648;-26
2023/10/27 02:56:29;;;;;;;11.38;6.15;;;;;;;17.07;70.52;98670.09;4971574;28;20027;-26
2023/10/27 02:58:54;;;;;;;12.70;5.85;;;;;;;16.97;70.38;98672.81;4971871;28;20030;-26
2023/10/27 03:01:20;;;;;;;14.15;5.40;;;;;;;17.03;70.50;98669.03;4983036;28;20561;-27
2023/10/27 03:03:46;;;;;;;13.18;5.50;;;;;;;16.95;70.44;98675.78;4985434;28;20049;-27
2023/10/27 03:06:12;;;;;;;13.45;6.43;;;;;;;16.99;70.26;98676.03;4986132;28;20084;-27
2023/10/27 03:08:39;;;;;;;11.27;5.95;;;;;;;17.05;70.54;98677.63;4971877;28;20049;-26
2023/10/27 03:11:05;;;;;;;14.85;6.38;;;;;;;16.97;70.02;98670.94;4975582;28;20033;-26
2023/10/27 03:13:31;;;;;;;14.85;7.65;;;;;;;17.02;69.83;98683.56;4980429;28;20023;-26
2023/10/27 03:16:01;;;;;;;12.23;6.65;;;;;;;16.89;70.57;98687.63;4988223;28;20019;-26
2023/10/27 03:18:27;;;;;;;21.20;6.65;;;;;;;16.93;70.00;98696.75;4980002;28;20015;-26
2023/10/27 03:20:57;;;;;;;17.52;5.78;;;;;;;16.68;70.93;98689.47;4977003;28;20100;-26
2023/10/27 03:23:23;;;;;;;15.18;6.38;;;;;;;16.73;70.76;98689.47;4971445;28;20054;-26
2023/10/27 03:25:48;;;;;;;11.50;6.13;;;;;;;16.52;71.40;98677.09;4971364;28;20031;-26
2023/10/27 03:28:14;;;;;;;11.45;5.97;;;;;;;16.55;71.38;98673.91;4971441;28;20031;-27
2023/10/27 03:30:39;;;;;;;13.65;6.00;;;;;;;16.57;71.69;98688.66;4971214;28;20098;-26
2023/10/27 03:33:05;;;;;;;14.40;5.95;;;;;;;16.71;71.07;98685.44;4970771;28;20030;-26
2023/10/27 03:35:31;;;;;;;13.80;6.05;;;;;;;16.74;70.87;98674.97;4971030;28;20455;-26
2023/10/27 03:37:56;;;;;;;12.35;6.47;;;;;;;16.77;71.09;98679.81;4971096;28;20142;-26
2023/10/27 03:40:21;;;;;;;14.25;6.28;;;;;;;16.77;71.08;98689.72;4971277;28;20493;-26
2023/10/27 03:42:47;;;;;;;15.45;6.40;;;;;;;16.70;70.94;98681.97;4971188;28;20025;-26
2023/10/27 03:45:12;;;;;;;12.45;6.43;;;;;;;16.74;71.25;98688.41;4971554;28;20023;-26
2023/10/27 03:47:38;;;;;;;15.57;6.25;;;;;;;16.53;70.96;98662.63;4971220;28;20391;-26
2023/10/27 03:50:03;;;;;;;14.77;6.43;;;;;;;16.74;71.34;98691.09;4973900;28;20023;-26
2023/10/27 03:52:29;;;;;;;16.80;6.47;;;;;;;16.75;71.61;98686.50;4974573;28;20092;-27
2023/10/27 03:54:54;;;;;;;22.15;9.88;;;;;;;16.73;71.15;98686.78;4975358;28;20062;-25
2023/10/27 03:57:20;;;;;;;19.25;8.00;;;;;;;16.65;71.86;98684.63;4975790;28;20034;-26
2023/10/27 03:59:46;;;;;;;16.05;7.18;;;;;;;16.66;71.94;98672.81;4975667;28;20026;-25
2023/10/27 04:02:11;;;;;;;20.33;9.73;;;;;;;16.72;71.77;98673.63;4995238;28;20027;-26
2023/10/27 04:04:37;;;;;;;14.20;6.95;;;;;;;16.83;70.92;98674.44;4995009;28;20049;-26
2023/10/27 04:07:02;;;;;;;16.23;7.38;;;;;;;17.00;70.65;98666.88;4995080;28;20033;-27
2023/10/27 04:09:28;;;;;;;13.93;7.00;;;;;;;16.95;70.62;98667.72;4995069;28;20084;-26
2023/10/27 04:11:53;;;;;;;13.23;6.47;;;;;;;17.04;70.12;98667.16;4995320;28;20022;-26
2023/10/27 04:14:18;;;;;;;16.90;7.47;;;;;;;17.04;70.19;98676.03;4995418;28;20027;-26
2023/10/27 04:16:44;;;;;;;15.70;6.80;;;;;;;17.03;70.40;98666.34;4994866;28;20133;-26
2023/10/27 04:19:09;;;;;;;16.27;6.75;;;;;;;16.93;70.53;98671.75;4995148;28;20076;-26
2023/10/27 04:21:34;;;;;;;12.20;6.55;;;;;;;16.85;70.84;98650.78;4995176;28;20462;-26
2023/10/27 04:24:00;;;;;;;12.85;6.32;;;;;;;16.94;70.28;98657.22;4995023;28;20076;-27
2023/10/27 04:26:25;;;;;;;19.73;7.53;;;;;;;16.93;70.38;98667.19;4994917;28;20033;-27
2023/10/27 04:28:51;;;;;;;14.60;7.20;;;;;;;16.90;70.56;98659.66;5005028;28;20033;-27
2023/10/27 04:31:17;;;;;;;22.10;8.32;;;;;;;16.76;70.69;98659.38;5006279;28;20057;-27
2023/10/27 04:33:43;;;;;;;18.65;7.78;;;;;;;16.68;71.31;98662.63;5008471;28;20153;-27
2023/10/27 04:36:08;;;;;;;20.48;8.63;;;;;;;16.55;71.91;98657.78;5013498;28;20108;-27
2023/10/27 04:38:34;;;;;;;16.15;6.93;;;;;;;16.83;71.12;98658.31;5013183;28;20024;-28
2023/10/27 04:40:59;;;;;;;20.40;7.78;;;;;;;16.75;70.74;98648.91;5013720;28;20029;-26
2023/10/27 04:43:25;;;;;;;20.40;8.85;;;;;;;16.75;70.86;98648.91;5013720;28;20084;-26
2023/10/27 04:45:50;;;;;;;17.63;7.15;;;;;;;16.71;70.94;98635.19;5013456;28;20034;-28
2023/10/27 04:48:16;;;;;;;17.05;7.82;;;;;;;16.74;71.09;98642.72;5013316;28;20034;-28
2023/10/27 04:50:41;;;;;;;20.83;7.88;;;;;;;16.76;70.34;98645.94;5012346;28;20052;-27
2023/10/27 04:53:07;;;;;;;16.45;8.45;;;;;;;16.80;70.24;98648.91;5012485;28;20096;-26
2023/10/27 04:55:32;;;;;;;19.50;7.85;;;;;;;16.76;70.32;98648.63;5012683;28;20029;-28
2023/10/27 04:57:58;;;;;;;15.80;7.38;;;;;;;16.73;70.42;98664.47;4999106;28;20010;-27
2023/10/27 05:00:23;;;;;;;21.40;7.88;;;;;;;16.80;70.17;98663.13;5000816;28;20410;-26
2023/10/27 05:02:50;;;;;;;17.65;8.25;;;;;;;16.88;69.89;98652.94;5012620;28;20028;-28
2023/10/27 05:05:16;;;;;;;17.00;8.15;;;;;;;16.80;70.34;98659.66;4996651;28;20038;-27
2023/10/27 05:07:41;;;;;;;28.23;10.07;;;;;;;16.88;70.27;98667.19;5012726;28;20036;-27
2023/10/27 05:10:09;;;;;;;23.92;8.77;;;;;;;16.86;70.28;98668.53;5012597;28;20437;-25
2023/10/27 05:12:38;;;;;;;24.38;10.75;;;;;;;16.79;69.80;98666.09;5008598;28;20034;-27
2023/10/27 05:15:05;;;;;;;38.13;19.45;;;;;;;16.75;70.33;98659.63;4991028;28;20026;-26
2023/10/27 05:17:34;;;;;;;19.63;10.30;;;;;;;16.74;70.61;98666.09;4993395;28;20030;-26
2023/10/27 05:19:59;;;;;;;25.17;10.48;;;;;;;16.87;70.75;98667.44;4993036;28;20523;-26
2023/10/27 05:22:24;;;;;;;16.42;8.23;;;;;;;16.95;70.18;98666.91;4992807;28;20033;-27
2023/10/27 05:24:50;;;;;;;22.35;7.72;;;;;;;17.12;68.83;98666.63;4993039;28;20026;-28
2023/10/27 05:27:15;;;;;;;16.65;7.78;;;;;;;16.93;69.61;98672.56;4987009;28;20109;-27
2023/10/27 05:29:41;;;;;;;22.83;8.45;;;;;;;17.05;68.91;98672.25;4983769;28;20035;-28
2023/10/27 05:32:06;;;;;;;19.17;8.98;;;;;;;17.06;68.37;98667.69;4980502;28;20014;-27
2023/10/27 05:34:31;;;;;;;20.58;8.43;;;;;;;16.86;68.92;98672.03;4981520;28;20066;-26
2023/10/27 05:36:57;;;;;;;24.73;9.15;;;;;;;16.90;69.65;98683.84;4982273;28;20403;-27
2023/10/27 05:39:26;;;;;;;26.20;12.98;;;;;;;17.00;71.72;98681.16;4992836;28;20018;-27
2023/10/27 05:41:52;;;;;;;31.45;13.80;;;;;;;17.18;69.94;98677.06;4992824;28;20054;-26
2023/10/27 05:44:17;;;;;;;26.70;11.48;;;;;;;17.35;68.79;98673.28;4991399;28;20069;-27
2023/10/27 05:46:43;;;;;;;24.17;9.13;;;;;;;17.56;68.04;98680.19;4992991;28;20034;-28
2023/10/27 05:49:09;;;;;;;22.35;8.95;;;;;;;18.10;65.85;98697.44;4992880;28;20458;-27
2023/10/27 05:51:35;;;;;;;20.42;9.70;;;;;;;18.39;66.35;98702.13;4991661;28;20034;-27
2023/10/27 05:54:01;;;;;;;25.23;11.73;;;;;;;18.60;65.56;98694.69;4992422;28;20398;-27
2023/10/27 05:56:27;;;;;;;27.85;15.40;;;;;;;18.85;64.82;98701.78;4991931;28;20030;-27
2023/10/27 05:58:53;;;;;;;29.83;11.32;;;;;;;18.98;64.13;98697.59;4992387;28;20040;-26
2023/10/27 06:01:19;;;;;;;18.15;8.27;;;;;;;19.28;62.38;98693.81;4991847;28;20401;-26
2023/10/27 06:03:44;;;;;;;15.65;8.35;;;;;;;19.30;61.43;98691.63;5006017;28;20112;-28
2023/10/27 06:06:10;;;;;;;23.50;9.23;;;;;;;19.26;61.62;98679.00;4990998;28;20042;-27
2023/10/27 06:08:40;;;;;;;18.73;8.40;;;;;;;19.09;62.08;98679.44;4991233;28;20089;-27
2023/10/27 06:11:06;;;;;;;23.90;9.63;;;;;;;19.13;61.95;98672.38;4991683;28;20026;-27
2023/10/27 06:13:31;;;;;;;18.88;8.90;;;;;;;19.09;62.25;98661.38;4992251;28;20734;-26
2023/10/27 06:15:57;;;;;;;18.38;8.10;;;;;;;19.39;61.93;98662.13;4991944;28;20045;-27
2023/10/27 06:18:22;;;;;;;21.10;8.30;;;;;;;19.63;61.44;98674.78;4991886;28;20030;-27
2023/10/27 06:20:48;;;;;;;20.77;9.20;;;;;;;19.89;60.76;98675.31;4991803;28;20087;-26
2023/10/27 06:23:13;;;;;;;22.35;8.40;;;;;;;19.98;60.34;98678.16;4992191;28;20056;-27
2023/10/27 06:25:38;;;;;;;20.73;7.53;;;;;;;20.10;58.58;98675.81;4991808;28;20053;-27
2023/10/27 06:28:04;;;;;;;15.35;7.30;;;;;;;20.15;59.42;98683.84;4992311;28;20179;-27
2023/10/27 06:30:29;;;;;;;19.02;6.90;;;;;;;20.41;59.38;98686.16;4992083;28;20026;-27
2023/10/27 06:32:55;;;;;;;18.17;7.47;;;;;;;20.62;58.62;98694.78;4991598;28;20034;-27
2023/10/27 06:35:20;;;;;;;13.68;6.80;;;;;;;20.96;56.85;98690.97;4991642;28;20134;-27
2023/10/27 06:37:45;;;;;;;15.95;6.78;;;;;;;21.01;57.34;98688.19;4992163;28;20026;-26
2023/10/27 06:40:11;;;;;;;15.45;6.95;;;;;;;21.32;56.38;98684.91;4991699;28;20054;-28
2023/10/27 06:42:36;;;;;;;14.63;6.90;;;;;;;21.70;55.56;98684.75;4991860;28;20034;-28
2023/10/27 06:45:03;;;;;;;16.05;7.07;;;;;;;22.24;53.54;98683.81;4992107;28;20050;-28
2023/10/27 06:47:29;;;;;;;19.67;8.48;;;;;;;21.86;55.19;98675.19;4990869;28;20034;-27
2023/10/27 06:49:54;;;;;;;17.25;6.65;;;;;;;22.33;53.00;98674.97;4990421;28;20445;-28
2023/10/27 06:52:19;;;;;;;17.60;7.18;;;;;;;22.42;52.06;98667.72;4989962;28;20057;-27
2023/10/27 06:54:46;;;;;;;25.23;9.43;;;;;;;21.98;52.91;98669.25;4990164;28;20177;-26
2023/10/27 06:57:11;;;;;;;21.50;8.50;;;;;;;21.83;53.42;98676.59;4990350;28;20406;-28
2023/10/27 06:59:37;;;;;;;19.25;7.60;;;;;;;22.48;52.93;98671.13;4990547;28;20026;-26
2023/10/27 07:02:03;;;;;;;19.13;7.30;;;;;;;22.98;51.46;98663.59;4990285;28;20037;-27
2023/10/27 07:04:28;;;;;;;14.45;8.05;;;;;;;23.16;50.22;98669.94;4990998;28;20069;-27
2023/10/27 07:06:54;;;;;;;21.40;8.98;;;;;;;23.25;50.59;98678.13;4991219;28;20113;-27
2023/10/27 07:09:19;;;;;;;25.20;8.02;;;;;;;23.49;50.26;98668.78;4991237;28;20468;-26
2023/10/27 07:11:45;;;;;;;19.13;6.00;;;;;;;23.39;48.80;98667.16;4991366;28;20093;-27
2023/10/27 07:14:13;;;;;;;13.32;5.78;;;;;;;23.29;49.35;98664.72;4991019;28;20034;-27
2023/10/27 07:16:39;;;;;;;16.27;6.22;;;;;;;23.16;49.71;98661.00;4991093;28;20026;-28
2023/10/27 07:19:05;;;;;;;14.75;6.00;;;;;;;23.27;49.61;98654.19;4991042;28;20026;-26
2023/10/27 07:21:30;;;;;;;14.50;5.70;;;;;;;23.33;48.98;98661.06;4991280;28;20108;-29
2023/10/27 07:23:56;;;;;;;13.05;6.40;;;;;;;22.97;49.91;98653.84;4992698;28;20030;-26
2023/10/27 07:26:21;;;;;;;13.68;6.00;;;;;;;23.12;49.70;98652.69;4995404;28;20026;-27
2023/10/27 07:28:46;;;;;;;16.75;7.03;;;;;;;22.80;49.92;98654.56;4995287;28;20038;-28
2023/10/27 07:31:12;;;;;;;18.25;6.32;;;;;;;22.57;50.71;98659.22;4994897;28;20451;-27
2023/10/27 07:33:39;;;;;;;15.52;7.22;;;;;;;22.89;49.71;98665.47;4995043;28;20029;-26
2023/10/27 07:36:10;;;;;;;21.45;7.07;;;;;;;22.93;49.33;98663.72;4994915;28;20030;-26
2023/10/27 07:38:35;;;;;;;14.65;7.10;;;;;;;22.88;49.82;98660.34;4994972;28;20442;-27
2023/10/27 07:41:02;;;;;;;22.02;7.10;;;;;;;22.89;49.94;98670.91;5008755;28;20025;-27
2023/10/27 07:43:27;;;;;;;14.15;6.82;;;;;;;23.01;50.03;98662.97;4997342;28;20038;-27
2023/10/27 07:45:54;;;;;;;13.82;6.97;;;;;;;23.07;49.65;98660.16;4987624;28;20102;-26
2023/10/27 07:48:20;;;;;;;13.95;6.63;;;;;;;22.99;50.16;98648.13;4983392;28;20085;-27
2023/10/27 07:50:46;;;;;;;13.55;6.22;;;;;;;23.11;50.08;98647.56;4985724;28;20518;-27
2023/10/27 07:53:11;;;;;;;14.35;6.22;;;;;;;23.49;49.08;98644.34;4984142;28;20117;-27
2023/10/27 07:55:37;;;;;;;18.23;6.82;;;;;;;23.63;48.98;98645.03;4986475;28;20026;-26
2023/10/27 07:58:04;;;;;;;13.43;6.88;;;;;;;23.88;47.86;98631.84;4986026;28;20481;-27
2023/10/27 08:00:30;;;;;;;15.57;6.68;;;;;;;23.78;47.63;98617.44;4981907;28;20019;-27
2023/10/27 08:02:57;;;;;;;19.77;6.60;;;;;;;22.96;49.33;98617.00;4991886;28;20026;-27
2023/10/27 09:32:27;;;;;;;12.55;5.85;;;;;;;24.56;46.33;98554.06;5129041;27;20875;-34
2023/10/27 09:35:24;;;;;;;11.63;5.75;;;;;;;24.95;45.63;98557.59;5129016;27;20038;-34
2023/10/27 09:37:50;;;;;;;19.23;6.03;;;;;;;25.11;45.19;98555.13;5111557;28;20413;-38
2023/10/27 09:40:15;;;;;;;9.95;5.95;;;;;;;25.55;45.03;98536.59;5128616;27;20020;-34
2023/10/27 09:42:42;;;;;;;17.15;5.53;;;;;;;25.56;43.84;98532.72;5129038;27;20032;-36
2023/10/27 09:45:11;;;;;;;16.67;5.70;;;;;;;25.28;44.79;98524.28;5128551;27;20876;-35
2023/10/27 09:47:50;;;;;;;12.70;5.20;;;;;;;25.51;43.58;98529.41;5128641;27;20042;-33
2023/10/27 09:50:26;;;;;;;11.85;4.75;;;;;;;25.95;43.06;98540.78;5128405;27;20201;-34
2023/10/27 09:52:58;;;;;;;13.27;5.05;;;;;;;26.12;42.17;98520.72;5128323;27;20035;-34
2023/10/27 09:55:24;;;;;;;15.52;5.30;;;;;;;26.37;42.33;98546.16;5126961;28;20043;-34
2023/10/27 09:57:49;;;;;;;13.05;4.93;;;;;;;26.61;41.12;98530.97;5128651;27;20112;-34
2023/10/27 10:00:21;;;;;;;13.77;5.13;;;;;;;26.31;42.03;98525.66;5128695;28;20022;-34
2023/10/27 10:02:47;;;;;;;15.35;5.50;;;;;;;26.53;41.76;98530.72;5128863;27;20026;-36
2023/10/27 10:05:12;;;;;;;14.93;5.35;;;;;;;26.73;41.07;98525.53;5128759;27;20106;-34
2023/10/27 10:07:51;;;;;;;12.77;5.20;;;;;;;27.00;40.27;98520.53;5128781;27;20478;-35
2023/10/27 10:10:17;;;;;;;15.65;5.47;;;;;;;26.99;40.28;98510.75;5128428;27;20505;-34
2023/10/27 10:13:16;;;;;;;10.80;4.85;;;;;;;27.35;40.40;98509.13;5128090;27;20031;-37
2023/10/27 10:15:43;;;;;;;15.55;5.20;;;;;;;27.09;39.77;98511.09;5128050;27;20070;-33
2023/10/27 10:18:35;;;;;;;11.73;5.07;;;;;;;27.25;39.69;98496.75;5128195;27;20027;-35
2023/10/27 10:21:01;;;;;;;11.00;4.80;;;;;;;27.34;40.07;98475.59;5104379;27;20085;-33
2023/10/27 10:23:41;;;;;;;12.18;5.10;;;;;;;27.05;40.53;98476.63;5128093;27;20478;-34
2023/10/27 10:26:07;;;;;;;18.92;5.47;;;;;;;27.45;40.08;98465.72;5127632;27;20505;-33
2023/10/27 10:28:34;;;;;;;22.92;5.40;;;;;;;27.65;39.92;98469.44;5128316;27;20055;-35
2023/10/27 10:31:16;;;;;;;12.32;4.70;;;;;;;27.92;39.54;98469.78;5127747;27;20048;-35
2023/10/27 10:33:44;;;;;;;12.23;4.40;;;;;;;28.13;38.51;98469.56;5114291;28;20263;-33
2023/10/27 10:36:22;;;;;;;18.03;4.90;;;;;;;28.01;39.28;98475.91;5114374;28;20501;-34
2023/10/27 10:38:57;;;;;;;14.52;4.57;;;;;;;27.85;39.73;98456.72;5114251;28;20028;-36
2023/10/27 10:41:40;;;;;;;10.93;4.30;;;;;;;28.37;38.87;98445.91;5114210;28;20034;-34
2023/10/27 10:44:13;;;;;;;10.25;4.32;;;;;;;28.49;38.40;98445.84;5114404;28;20407;-33
2023/10/27 10:46:39;;;;;;;10.98;4.68;;;;;;;28.63;37.52;98448.91;5114520;28;20027;-35
2023/10/27 10:49:05;;;;;;;9.68;4.28;;;;;;;28.78;37.08;98439.09;5114233;28;20027;-34
2023/10/27 10:51:36;;;;;;;10.57;4.50;;;;;;;28.60;37.08;98440.66;5114203;28;20390;-33
2023/10/27 10:54:02;;;;;;;16.08;4.72;;;;;;;28.59;37.03;98442.56;5114564;28;20035;-33
2023/10/27 10:56:27;;;;;;;11.77;4.53;;;;;;;28.79;37.02;98448.91;5114109;28;20028;-34
2023/10/27 10:58:53;;;;;;;20.73;5.20;;;;;;;28.97;36.79;98449.28;5113529;28;20020;-36
2023/10/27 11:01:23;;;;;;;9.98;4.43;;;;;;;29.03;36.67;98458.84;5113851;28;20098;-35
2023/10/27 11:03:52;;;;;;;15.93;4.85;;;;;;;29.09;36.90;98453.84;5113664;28;20359;-34
2023/10/27 11:06:19;;;;;;;10.48;4.22;;;;;;;29.11;36.14;98440.63;5114082;28;20019;-34
2023/10/27 11:08:46;;;;;;;14.80;4.85;;;;;;;28.78;36.53;98441.06;5113570;28;20444;-33
2023/10/27 11:11:16;;;;;;;13.38;4.90;;;;;;;28.67;37.02;98443.53;5113264;28;20601;-34
2023/10/27 11:13:43;;;;;;;11.05;4.47;;;;;;;28.87;36.98;98452.59;5113787;28;20102;-34
2023/10/27 11:16:25;;;;;;;11.15;5.10;;;;;;;28.90;37.13;98445.59;5113852;28;20520;-34
2023/10/27 11:18:59;;;;;;;11.18;4.35;;;;;;;28.97;36.61;98449.28;5113725;27;20485;-35
2023/10/27 11:21:30;;;;;;;16.05;4.68;;;;;;;28.88;36.83;98442.44;5112819;28;20016;-36
2023/10/27 11:23:56;;;;;;;13.48;4.30;;;;;;;29.12;36.63;98447.66;5113483;28;20037;-34
2023/10/27 11:26:29;;;;;;;9.63;4.03;;;;;;;29.19;36.14;98449.81;5113659;28;20020;-38
2023/10/27 11:28:55;;;;;;;10.10;4.25;;;;;;;29.31;35.94;98457.09;5114106;27;20028;-34
2023/10/27 11:31:23;;;;;;;13.98;4.70;;;;;;;29.17;36.22;98455.63;5112795;28;20403;-33
2023/10/27 11:34:07;;;;;;;11.95;4.03;;;;;;;29.34;35.83;98465.38;5113285;28;20561;-34
2023/10/27 11:36:44;;;;;;;14.77;4.50;;;;;;;29.03;36.41;98466.25;5113306;27;20046;-37
2023/10/27 11:39:16;;;;;;;12.15;4.47;;;;;;;29.05;36.41;98469.41;5113211;28;20054;-33
2023/10/27 11:41:43;;;;;;;12.90;4.10;;;;;;;29.09;35.92;98464.00;5112692;28;20016;-35
2023/10/27 11:44:09;;;;;;;13.80;4.50;;;;;;;28.72;36.35;98456.16;5111956;28;20032;-33
2023/10/27 11:46:37;;;;;;;12.18;4.45;;;;;;;28.73;36.84;98455.81;5112783;28;20040;-34
2023/10/27 11:49:02;;;;;;;13.52;4.82;;;;;;;28.28;37.60;98443.38;5112800;28;20019;-34
2023/10/27 11:51:29;;;;;;;10.60;4.20;;;;;;;28.44;37.20;98448.81;5112634;28;20031;-34
2023/10/27 11:53:55;;;;;;;10.50;4.53;;;;;;;28.76;36.79;98448.81;5112905;28;20028;-34
2023/10/27 11:56:20;;;;;;;9.18;4.25;;;;;;;28.90;36.55;98427.25;5112810;28;20402;-34
2023/10/27 11:58:46;;;;;;;17.23;4.82;;;;;;;29.11;36.62;98412.41;5113007;28;20020;-35
2023/10/27 12:01:11;;;;;;;11.68;4.13;;;;;;;28.65;36.43;98413.81;5112931;28;20084;-34
2023/10/27 12:03:37;;;;;;;11.07;4.30;;;;;;;28.55;36.67;98416.28;5112251;28;20102;-34
2023/10/27 12:06:02;;;;;;;12.52;3.75;;;;;;;28.46;37.09;98417.25;5112564;28;20023;-33
2023/10/27 12:08:28;;;;;;;11.60;4.30;;;;;;;28.42;36.67;98421.03;5112767;28;20019;-34
2023/10/27 12:10:53;;;;;;;11.45;4.05;;;;;;;28.30;36.85;98421.94;5112372;28;20043;-40
2023/10/27 12:13:23;;;;;;;12.35;4.00;;;;;;;28.57;37.08;98435.88;5112568;28;20560;-34
2023/10/27 12:15:49;;;;;;;10.10;3.92;;;;;;;28.80;36.50;98425.06;5112538;28;20023;-34
2023/10/27 12:18:21;;;;;;;13.63;3.78;;;;;;;28.68;36.63;98422.44;5112809;28;20471;-35
2023/10/27 12:20:47;;;;;;;8.63;3.83;;;;;;;28.77;36.26;98431.25;5112461;28;20023;-36
2023/10/27 12:23:12;;;;;;;10.90;3.90;;;;;;;28.92;35.67;98413.19;5112226;28;20045;-34
2023/10/27 12:25:38;;;;;;;14.45;4.00;;;;;;;28.45;36.38;98412.91;5112408;28;20030;-35
2023/10/27 12:28:04;;;;;;;11.02;3.67;;;;;;;28.54;36.68;98401.81;5112733;28;20024;-33
2023/10/27 12:30:30;;;;;;;9.35;3.53;;;;;;;28.28;36.61;98400.41;5111907;28;20134;-33
2023/10/27 12:32:57;;;;;;;9.48;3.60;;;;;;;28.36;36.86;98387.69;5112326;28;20022;-35
2023/10/27 12:35:25;;;;;;;7.28;3.33;;;;;;;28.46;36.61;98375.41;5111883;28;20015;-35
2023/10/27 12:37:53;;;;;;;11.27;3.72;;;;;;;28.54;36.24;98360.78;5112011;28;20015;-35
2023/10/27 12:40:19;;;;;;;7.38;3.55;;;;;;;28.52;36.59;98368.56;5112389;28;20058;-34
2023/10/27 12:42:44;;;;;;;10.80;3.28;;;;;;;28.70;36.41;98368.94;5112223;28;20055;-35
2023/10/27 12:45:13;;;;;;;7.35;3.60;;;;;;;28.84;35.52;98371.19;5111663;28;20027;-35
2023/10/27 12:47:40;;;;;;;10.68;3.13;;;;;;;28.87;35.85;98364.22;5112019;28;20136;-35
2023/10/27 12:50:06;;;;;;;13.40;3.40;;;;;;;28.84;36.35;98361.06;5111856;28;20116;-34